sensor_id;sensor_type;location;lat;lon;timestamp;P1;P2;P0
47934;PMS5003;33704;43.592;-79.628;2024-03-29T00:00:31;2.0;2.0;
47934;PMS5003;33704;43.592;-79.628;2024-03-29T00:01:03;3.0;2.0;
47934;PMS5003;33704;43.592;-79.628;2024-03-29T00:01:35;5.0;4.0;
47934;PMS5003;33704;43.592;-79.628;2024-03-29T00:02:07;2.0;2.0;
47934;PMS5003;33704;43.592;-79.628;2024-03-29T00:02:39;1.0;1.0;
47934;PMS5003;33704;43.592;-79.628;2024-03-29T00:03:13;4.0;2.0;
47934;PMS5003;33704;43.592;-79.628;2024-03-29T00:03:45;3.0;3.0;
47934;PMS5003;33704;43.592;-79.628;2024-03-29T00:04:17;2.0;2.0;
47934;PMS5003;33704;43.592;-79.628;2024-03-29T00:04:49;3.0;3.0;
47934;PMS5003;33704;43.592;-79.628;2024-03-29T00:05:22;2.0;2.0;
47934;PMS5003;33704;43.592;-79.628;2024-03-29T00:05:54;1.0;1.0;
47934;PMS5003;33704;43.592;-79.628;2024-03-29T00:06:26;4.0;2.0;
47934;PMS5003;33704;43.592;-79.628;2024-03-29T00:06:58;3.0;3.0;
47934;PMS5003;33704;43.592;-79.628;2024-03-29T00:07:29;2.0;2.0;
47934;PMS5003;33704;43.592;-79.628;2024-03-29T00:08:03;2.0;2.0;
47934;PMS5003;33704;43.592;-79.628;2024-03-29T00:08:36;1.0;1.0;
47934;PMS5003;33704;43.592;-79.628;2024-03-29T00:09:08;3.0;2.0;
47934;PMS5003;33704;43.592;-79.628;2024-03-29T00:09:40;1.0;1.0;
47934;PMS5003;33704;43.592;-79.628;2024-03-29T00:10:14;1.0;1.0;
47934;PMS5003;33704;43.592;-79.628;2024-03-29T00:10:46;3.0;2.0;
47934;PMS5003;33704;43.592;-79.628;2024-03-29T00:11:18;15.0;13.0;
47934;PMS5003;33704;43.592;-79.628;2024-03-29T00:11:50;12.0;12.0;
47934;PMS5003;33704;43.592;-79.628;2024-03-29T00:12:22;3.0;2.0;
47934;PMS5003;33704;43.592;-79.628;2024-03-29T00:12:54;4.0;3.0;
47934;PMS5003;33704;43.592;-79.628;2024-03-29T00:13:26;5.0;4.0;
47934;PMS5003;33704;43.592;-79.628;2024-03-29T00:13:58;13.0;10.0;
47934;PMS5003;33704;43.592;-79.628;2024-03-29T00:14:31;8.0;7.0;
47934;PMS5003;33704;43.592;-79.628;2024-03-29T00:15:04;5.0;3.0;
47934;PMS5003;33704;43.592;-79.628;2024-03-29T00:15:37;13.0;12.0;
47934;PMS5003;33704;43.592;-79.628;2024-03-29T00:16:09;10.0;10.0;
47934;PMS5003;33704;43.592;-79.628;2024-03-29T00:16:42;2.0;2.0;
47934;PMS5003;33704;43.592;-79.628;2024-03-29T00:17:14;4.0;2.0;
47934;PMS5003;33704;43.592;-79.628;2024-03-29T00:17:45;3.0;3.0;
47934;PMS5003;33704;43.592;-79.628;2024-03-29T00:18:17;4.0;2.0;
47934;PMS5003;33704;43.592;-79.628;2024-03-29T00:18:49;2.0;1.0;
47934;PMS5003;33704;43.592;-79.628;2024-03-29T00:19:21;3.0;3.0;
47934;PMS5003;33704;43.592;-79.628;2024-03-29T00:19:54;3.0;2.0;
47934;PMS5003;33704;43.592;-79.628;2024-03-29T00:20:26;3.0;2.0;
47934;PMS5003;33704;43.592;-79.628;2024-03-29T00:20:58;2.0;2.0;
47934;PMS5003;33704;43.592;-79.628;2024-03-29T00:21:29;2.0;2.0;
47934;PMS5003;33704;43.592;-79.628;2024-03-29T00:22:04;5.0;3.0;
47934;PMS5003;33704;43.592;-79.628;2024-03-29T00:22:36;3.0;3.0;
47934;PMS5003;33704;43.592;-79.628;2024-03-29T00:23:08;2.0;2.0;
47934;PMS5003;33704;43.592;-79.628;2024-03-29T00:23:40;3.0;3.0;
47934;PMS5003;33704;43.592;-79.628;2024-03-29T00:24:13;2.0;2.0;
47934;PMS5003;33704;43.592;-79.628;2024-03-29T00:24:44;4.0;4.0;
47934;PMS5003;33704;43.592;-79.628;2024-03-29T00:25:16;3.0;3.0;
47934;PMS5003;33704;43.592;-79.628;2024-03-29T00:25:48;2.0;2.0;
47934;PMS5003;33704;43.592;-79.628;2024-03-29T00:26:25;5.0;5.0;
47934;PMS5003;33704;43.592;-79.628;2024-03-29T00:26:57;2.0;2.0;
47934;PMS5003;33704;43.592;-79.628;2024-03-29T00:27:29;2.0;2.0;
47934;PMS5003;33704;43.592;-79.628;2024-03-29T00:28:03;1.0;1.0;
47934;PMS5003;33704;43.592;-79.628;2024-03-29T00:28:35;3.0;2.0;
47934;PMS5003;33704;43.592;-79.628;2024-03-29T00:29:07;2.0;2.0;
47934;PMS5003;33704;43.592;-79.628;2024-03-29T00:29:39;2.0;2.0;
47934;PMS5003;33704;43.592;-79.628;2024-03-29T00:30:58;4.0;4.0;
47934;PMS5003;33704;43.592;-79.628;2024-03-29T00:31:30;1.0;1.0;
47934;PMS5003;33704;43.592;-79.628;2024-03-29T00:32:04;1.0;1.0;
47934;PMS5003;33704;43.592;-79.628;2024-03-29T00:32:37;4.0;3.0;
47934;PMS5003;33704;43.592;-79.628;2024-03-29T00:33:09;2.0;2.0;
47934;PMS5003;33704;43.592;-79.628;2024-03-29T00:33:41;5.0;3.0;
47934;PMS5003;33704;43.592;-79.628;2024-03-29T00:34:14;3.0;3.0;
47934;PMS5003;33704;43.592;-79.628;2024-03-29T00:34:46;7.0;4.0;
47934;PMS5003;33704;43.592;-79.628;2024-03-29T00:35:19;5.0;4.0;
47934;PMS5003;33704;43.592;-79.628;2024-03-29T00:35:51;2.0;2.0;
47934;PMS5003;33704;43.592;-79.628;2024-03-29T00:36:23;7.0;6.0;
47934;PMS5003;33704;43.592;-79.628;2024-03-29T00:36:55;3.0;3.0;
47934;PMS5003;33704;43.592;-79.628;2024-03-29T00:37:27;7.0;7.0;
47934;PMS5003;33704;43.592;-79.628;2024-03-29T00:37:59;5.0;5.0;
47934;PMS5003;33704;43.592;-79.628;2024-03-29T00:38:31;16.0;13.0;
47934;PMS5003;33704;43.592;-79.628;2024-03-29T00:39:04;11.0;9.0;
47934;PMS5003;33704;43.592;-79.628;2024-03-29T00:39:36;5.0;4.0;
47934;PMS5003;33704;43.592;-79.628;2024-03-29T00:40:08;4.0;4.0;
47934;PMS5003;33704;43.592;-79.628;2024-03-29T00:40:42;5.0;4.0;
47934;PMS5003;33704;43.592;-79.628;2024-03-29T00:41:14;6.0;4.0;
47934;PMS5003;33704;43.592;-79.628;2024-03-29T00:41:46;5.0;5.0;
47934;PMS5003;33704;43.592;-79.628;2024-03-29T00:42:18;3.0;3.0;
47934;PMS5003;33704;43.592;-79.628;2024-03-29T00:42:50;8.0;7.0;
47934;PMS5003;33704;43.592;-79.628;2024-03-29T00:43:23;5.0;4.0;
47934;PMS5003;33704;43.592;-79.628;2024-03-29T00:43:54;2.0;2.0;
47934;PMS5003;33704;43.592;-79.628;2024-03-29T00:44:26;5.0;4.0;
47934;PMS5003;33704;43.592;-79.628;2024-03-29T00:44:58;2.0;2.0;
47934;PMS5003;33704;43.592;-79.628;2024-03-29T00:45:30;4.0;4.0;
47934;PMS5003;33704;43.592;-79.628;2024-03-29T00:46:03;2.0;2.0;
47934;PMS5003;33704;43.592;-79.628;2024-03-29T00:46:36;1.0;1.0;
47934;PMS5003;33704;43.592;-79.628;2024-03-29T00:47:08;3.0;3.0;
47934;PMS5003;33704;43.592;-79.628;2024-03-29T00:47:40;1.0;1.0;
47934;PMS5003;33704;43.592;-79.628;2024-03-29T00:48:13;6.0;4.0;
47934;PMS5003;33704;43.592;-79.628;2024-03-29T00:48:44;3.0;3.0;
47934;PMS5003;33704;43.592;-79.628;2024-03-29T00:49:16;3.0;3.0;
47934;PMS5003;33704;43.592;-79.628;2024-03-29T00:49:48;3.0;3.0;
47934;PMS5003;33704;43.592;-79.628;2024-03-29T00:50:20;4.0;3.0;
47934;PMS5003;33704;43.592;-79.628;2024-03-29T00:50:52;3.0;3.0;
47934;PMS5003;33704;43.592;-79.628;2024-03-29T00:51:24;3.0;2.0;
47934;PMS5003;33704;43.592;-79.628;2024-03-29T00:51:56;3.0;3.0;
47934;PMS5003;33704;43.592;-79.628;2024-03-29T00:52:28;2.0;1.0;
47934;PMS5003;33704;43.592;-79.628;2024-03-29T00:53:00;2.0;2.0;
47934;PMS5003;33704;43.592;-79.628;2024-03-29T00:53:33;2.0;2.0;
47934;PMS5003;33704;43.592;-79.628;2024-03-29T00:54:05;3.0;2.0;
47934;PMS5003;33704;43.592;-79.628;2024-03-29T00:54:36;4.0;2.0;
47934;PMS5003;33704;43.592;-79.628;2024-03-29T00:55:08;2.0;2.0;
47934;PMS5003;33704;43.592;-79.628;2024-03-29T00:55:40;3.0;3.0;
47934;PMS5003;33704;43.592;-79.628;2024-03-29T00:56:14;3.0;3.0;
47934;PMS5003;33704;43.592;-79.628;2024-03-29T00:56:46;4.0;3.0;
47934;PMS5003;33704;43.592;-79.628;2024-03-29T00:57:18;3.0;3.0;
47934;PMS5003;33704;43.592;-79.628;2024-03-29T00:57:50;3.0;3.0;
47934;PMS5003;33704;43.592;-79.628;2024-03-29T00:58:23;4.0;3.0;
47934;PMS5003;33704;43.592;-79.628;2024-03-29T00:58:55;5.0;4.0;
47934;PMS5003;33704;43.592;-79.628;2024-03-29T00:59:27;4.0;4.0;
47934;PMS5003;33704;43.592;-79.628;2024-03-29T00:59:59;3.0;3.0;
47934;PMS5003;33704;43.592;-79.628;2024-03-29T01:00:31;3.0;3.0;
47934;PMS5003;33704;43.592;-79.628;2024-03-29T01:01:03;3.0;3.0;
47934;PMS5003;33704;43.592;-79.628;2024-03-29T01:01:35;4.0;4.0;
47934;PMS5003;33704;43.592;-79.628;2024-03-29T01:02:07;3.0;1.0;
47934;PMS5003;33704;43.592;-79.628;2024-03-29T01:02:39;2.0;2.0;
47934;PMS5003;33704;43.592;-79.628;2024-03-29T01:03:12;2.0;2.0;
47934;PMS5003;33704;43.592;-79.628;2024-03-29T01:03:44;2.0;2.0;
47934;PMS5003;33704;43.592;-79.628;2024-03-29T01:04:16;3.0;3.0;
47934;PMS5003;33704;43.592;-79.628;2024-03-29T01:04:48;5.0;3.0;
47934;PMS5003;33704;43.592;-79.628;2024-03-29T01:05:20;2.0;2.0;
47934;PMS5003;33704;43.592;-79.628;2024-03-29T01:05:53;4.0;4.0;
47934;PMS5003;33704;43.592;-79.628;2024-03-29T01:06:25;3.0;3.0;
47934;PMS5003;33704;43.592;-79.628;2024-03-29T01:06:57;1.0;1.0;
47934;PMS5003;33704;43.592;-79.628;2024-03-29T01:07:29;5.0;5.0;
47934;PMS5003;33704;43.592;-79.628;2024-03-29T01:08:03;8.0;7.0;
47934;PMS5003;33704;43.592;-79.628;2024-03-29T01:08:36;8.0;7.0;
47934;PMS5003;33704;43.592;-79.628;2024-03-29T01:09:08;10.0;9.0;
47934;PMS5003;33704;43.592;-79.628;2024-03-29T01:09:41;15.0;13.0;
47934;PMS5003;33704;43.592;-79.628;2024-03-29T01:10:14;18.0;13.0;
47934;PMS5003;33704;43.592;-79.628;2024-03-29T01:10:46;28.0;25.0;
47934;PMS5003;33704;43.592;-79.628;2024-03-29T01:11:18;35.0;29.0;
47934;PMS5003;33704;43.592;-79.628;2024-03-29T01:11:50;35.0;32.0;
47934;PMS5003;33704;43.592;-79.628;2024-03-29T01:12:23;45.0;35.0;
47934;PMS5003;33704;43.592;-79.628;2024-03-29T01:12:55;52.0;45.0;
47934;PMS5003;33704;43.592;-79.628;2024-03-29T01:13:27;50.0;47.0;
47934;PMS5003;33704;43.592;-79.628;2024-03-29T01:13:59;47.0;44.0;
47934;PMS5003;33704;43.592;-79.628;2024-03-29T01:14:32;55.0;47.0;
47934;PMS5003;33704;43.592;-79.628;2024-03-29T01:15:04;41.0;37.0;
47934;PMS5003;33704;43.592;-79.628;2024-03-29T01:15:37;43.0;37.0;
47934;PMS5003;33704;43.592;-79.628;2024-03-29T01:16:09;32.0;30.0;
47934;PMS5003;33704;43.592;-79.628;2024-03-29T01:16:41;36.0;33.0;
47934;PMS5003;33704;43.592;-79.628;2024-03-29T01:17:13;36.0;30.0;
47934;PMS5003;33704;43.592;-79.628;2024-03-29T01:17:45;32.0;31.0;
47934;PMS5003;33704;43.592;-79.628;2024-03-29T01:18:17;29.0;26.0;
47934;PMS5003;33704;43.592;-79.628;2024-03-29T01:18:49;30.0;27.0;
47934;PMS5003;33704;43.592;-79.628;2024-03-29T01:19:21;24.0;23.0;
47934;PMS5003;33704;43.592;-79.628;2024-03-29T01:19:54;25.0;21.0;
47934;PMS5003;33704;43.592;-79.628;2024-03-29T01:20:26;26.0;25.0;
47934;PMS5003;33704;43.592;-79.628;2024-03-29T01:20:58;22.0;20.0;
47934;PMS5003;33704;43.592;-79.628;2024-03-29T01:21:30;24.0;21.0;
47934;PMS5003;33704;43.592;-79.628;2024-03-29T01:22:04;18.0;18.0;
47934;PMS5003;33704;43.592;-79.628;2024-03-29T01:22:36;19.0;19.0;
47934;PMS5003;33704;43.592;-79.628;2024-03-29T01:23:08;21.0;21.0;
47934;PMS5003;33704;43.592;-79.628;2024-03-29T01:23:40;18.0;18.0;
47934;PMS5003;33704;43.592;-79.628;2024-03-29T01:24:13;19.0;17.0;
47934;PMS5003;33704;43.592;-79.628;2024-03-29T01:24:45;13.0;12.0;
47934;PMS5003;33704;43.592;-79.628;2024-03-29T01:25:17;12.0;12.0;
47934;PMS5003;33704;43.592;-79.628;2024-03-29T01:25:48;21.0;20.0;
47934;PMS5003;33704;43.592;-79.628;2024-03-29T01:26:20;17.0;17.0;
47934;PMS5003;33704;43.592;-79.628;2024-03-29T01:26:53;19.0;18.0;
47934;PMS5003;33704;43.592;-79.628;2024-03-29T01:27:24;15.0;15.0;
47934;PMS5003;33704;43.592;-79.628;2024-03-29T01:27:56;13.0;12.0;
47934;PMS5003;33704;43.592;-79.628;2024-03-29T01:28:28;13.0;12.0;
47934;PMS5003;33704;43.592;-79.628;2024-03-29T01:29:00;12.0;12.0;
47934;PMS5003;33704;43.592;-79.628;2024-03-29T01:29:34;13.0;10.0;
47934;PMS5003;33704;43.592;-79.628;2024-03-29T01:30:07;13.0;11.0;
47934;PMS5003;33704;43.592;-79.628;2024-03-29T01:30:58;11.0;9.0;
47934;PMS5003;33704;43.592;-79.628;2024-03-29T01:31:30;14.0;12.0;
47934;PMS5003;33704;43.592;-79.628;2024-03-29T01:32:04;10.0;10.0;
47934;PMS5003;33704;43.592;-79.628;2024-03-29T01:32:36;12.0;11.0;
47934;PMS5003;33704;43.592;-79.628;2024-03-29T01:33:08;13.0;11.0;
47934;PMS5003;33704;43.592;-79.628;2024-03-29T01:33:40;12.0;9.0;
47934;PMS5003;33704;43.592;-79.628;2024-03-29T01:34:13;14.0;9.0;
47934;PMS5003;33704;43.592;-79.628;2024-03-29T01:34:45;10.0;9.0;
47934;PMS5003;33704;43.592;-79.628;2024-03-29T01:35:16;12.0;9.0;
47934;PMS5003;33704;43.592;-79.628;2024-03-29T01:35:48;11.0;9.0;
47934;PMS5003;33704;43.592;-79.628;2024-03-29T01:36:20;12.0;9.0;
47934;PMS5003;33704;43.592;-79.628;2024-03-29T01:36:52;10.0;8.0;
47934;PMS5003;33704;43.592;-79.628;2024-03-29T01:37:24;11.0;8.0;
47934;PMS5003;33704;43.592;-79.628;2024-03-29T01:37:56;10.0;10.0;
47934;PMS5003;33704;43.592;-79.628;2024-03-29T01:38:28;9.0;9.0;
47934;PMS5003;33704;43.592;-79.628;2024-03-29T01:39:00;8.0;7.0;
47934;PMS5003;33704;43.592;-79.628;2024-03-29T01:39:33;10.0;8.0;
47934;PMS5003;33704;43.592;-79.628;2024-03-29T01:40:05;9.0;7.0;
47934;PMS5003;33704;43.592;-79.628;2024-03-29T01:40:38;13.0;11.0;
47934;PMS5003;33704;43.592;-79.628;2024-03-29T01:41:10;13.0;13.0;
47934;PMS5003;33704;43.592;-79.628;2024-03-29T01:41:43;11.0;10.0;
47934;PMS5003;33704;43.592;-79.628;2024-03-29T01:42:15;7.0;7.0;
47934;PMS5003;33704;43.592;-79.628;2024-03-29T01:42:47;11.0;7.0;
47934;PMS5003;33704;43.592;-79.628;2024-03-29T01:43:19;11.0;7.0;
47934;PMS5003;33704;43.592;-79.628;2024-03-29T01:43:51;12.0;10.0;
47934;PMS5003;33704;43.592;-79.628;2024-03-29T01:44:24;13.0;10.0;
47934;PMS5003;33704;43.592;-79.628;2024-03-29T01:44:56;7.0;6.0;
47934;PMS5003;33704;43.592;-79.628;2024-03-29T01:45:28;10.0;10.0;
47934;PMS5003;33704;43.592;-79.628;2024-03-29T01:46:02;9.0;9.0;
47934;PMS5003;33704;43.592;-79.628;2024-03-29T01:46:35;12.0;9.0;
47934;PMS5003;33704;43.592;-79.628;2024-03-29T01:47:08;10.0;9.0;
47934;PMS5003;33704;43.592;-79.628;2024-03-29T01:47:40;14.0;11.0;
47934;PMS5003;33704;43.592;-79.628;2024-03-29T01:48:12;10.0;9.0;
47934;PMS5003;33704;43.592;-79.628;2024-03-29T01:48:44;10.0;8.0;
47934;PMS5003;33704;43.592;-79.628;2024-03-29T01:49:16;7.0;4.0;
47934;PMS5003;33704;43.592;-79.628;2024-03-29T01:49:49;9.0;7.0;
47934;PMS5003;33704;43.592;-79.628;2024-03-29T01:50:22;12.0;9.0;
47934;PMS5003;33704;43.592;-79.628;2024-03-29T01:50:55;10.0;8.0;
47934;PMS5003;33704;43.592;-79.628;2024-03-29T01:51:28;10.0;9.0;
47934;PMS5003;33704;43.592;-79.628;2024-03-29T01:52:02;11.0;9.0;
47934;PMS5003;33704;43.592;-79.628;2024-03-29T01:52:35;9.0;8.0;
47934;PMS5003;33704;43.592;-79.628;2024-03-29T01:53:08;10.0;8.0;
47934;PMS5003;33704;43.592;-79.628;2024-03-29T01:53:40;9.0;9.0;
47934;PMS5003;33704;43.592;-79.628;2024-03-29T01:54:15;7.0;7.0;
47934;PMS5003;33704;43.592;-79.628;2024-03-29T01:54:48;6.0;6.0;
47934;PMS5003;33704;43.592;-79.628;2024-03-29T01:55:20;8.0;6.0;
47934;PMS5003;33704;43.592;-79.628;2024-03-29T01:55:54;11.0;9.0;
47934;PMS5003;33704;43.592;-79.628;2024-03-29T01:56:26;9.0;8.0;
47934;PMS5003;33704;43.592;-79.628;2024-03-29T01:56:58;6.0;6.0;
47934;PMS5003;33704;43.592;-79.628;2024-03-29T01:57:32;7.0;7.0;
47934;PMS5003;33704;43.592;-79.628;2024-03-29T01:58:04;10.0;9.0;
47934;PMS5003;33704;43.592;-79.628;2024-03-29T01:58:38;8.0;7.0;
47934;PMS5003;33704;43.592;-79.628;2024-03-29T01:59:12;9.0;7.0;
47934;PMS5003;33704;43.592;-79.628;2024-03-29T01:59:46;7.0;7.0;
47934;PMS5003;33704;43.592;-79.628;2024-03-29T02:00:22;9.0;7.0;
47934;PMS5003;33704;43.592;-79.628;2024-03-29T02:00:55;10.0;8.0;
47934;PMS5003;33704;43.592;-79.628;2024-03-29T02:01:29;12.0;9.0;
47934;PMS5003;33704;43.592;-79.628;2024-03-29T02:02:02;8.0;8.0;
47934;PMS5003;33704;43.592;-79.628;2024-03-29T02:02:34;8.0;6.0;
47934;PMS5003;33704;43.592;-79.628;2024-03-29T02:03:07;8.0;7.0;
47934;PMS5003;33704;43.592;-79.628;2024-03-29T02:03:39;7.0;7.0;
47934;PMS5003;33704;43.592;-79.628;2024-03-29T02:04:13;8.0;5.0;
47934;PMS5003;33704;43.592;-79.628;2024-03-29T02:04:45;9.0;8.0;
47934;PMS5003;33704;43.592;-79.628;2024-03-29T02:05:17;6.0;6.0;
47934;PMS5003;33704;43.592;-79.628;2024-03-29T02:05:49;8.0;7.0;
47934;PMS5003;33704;43.592;-79.628;2024-03-29T02:06:22;5.0;5.0;
47934;PMS5003;33704;43.592;-79.628;2024-03-29T02:06:54;7.0;7.0;
47934;PMS5003;33704;43.592;-79.628;2024-03-29T02:07:26;9.0;9.0;
47934;PMS5003;33704;43.592;-79.628;2024-03-29T02:07:59;8.0;6.0;
47934;PMS5003;33704;43.592;-79.628;2024-03-29T02:08:32;11.0;10.0;
47934;PMS5003;33704;43.592;-79.628;2024-03-29T02:09:05;7.0;7.0;
47934;PMS5003;33704;43.592;-79.628;2024-03-29T02:09:37;5.0;5.0;
47934;PMS5003;33704;43.592;-79.628;2024-03-29T02:10:09;10.0;6.0;
47934;PMS5003;33704;43.592;-79.628;2024-03-29T02:10:43;7.0;7.0;
47934;PMS5003;33704;43.592;-79.628;2024-03-29T02:11:17;6.0;6.0;
47934;PMS5003;33704;43.592;-79.628;2024-03-29T02:11:50;9.0;7.0;
47934;PMS5003;33704;43.592;-79.628;2024-03-29T02:12:23;6.0;6.0;
47934;PMS5003;33704;43.592;-79.628;2024-03-29T02:12:54;7.0;6.0;
47934;PMS5003;33704;43.592;-79.628;2024-03-29T02:13:26;7.0;7.0;
47934;PMS5003;33704;43.592;-79.628;2024-03-29T02:13:58;8.0;7.0;
47934;PMS5003;33704;43.592;-79.628;2024-03-29T02:14:30;8.0;8.0;
47934;PMS5003;33704;43.592;-79.628;2024-03-29T02:15:05;7.0;5.0;
47934;PMS5003;33704;43.592;-79.628;2024-03-29T02:15:39;10.0;10.0;
47934;PMS5003;33704;43.592;-79.628;2024-03-29T02:16:12;11.0;8.0;
47934;PMS5003;33704;43.592;-79.628;2024-03-29T02:16:44;8.0;6.0;
47934;PMS5003;33704;43.592;-79.628;2024-03-29T02:17:15;7.0;7.0;
47934;PMS5003;33704;43.592;-79.628;2024-03-29T02:17:47;7.0;7.0;
47934;PMS5003;33704;43.592;-79.628;2024-03-29T02:18:19;7.0;7.0;
47934;PMS5003;33704;43.592;-79.628;2024-03-29T02:18:52;6.0;6.0;
47934;PMS5003;33704;43.592;-79.628;2024-03-29T02:19:24;6.0;5.0;
47934;PMS5003;33704;43.592;-79.628;2024-03-29T02:19:55;7.0;6.0;
47934;PMS5003;33704;43.592;-79.628;2024-03-29T02:20:28;6.0;6.0;
47934;PMS5003;33704;43.592;-79.628;2024-03-29T02:21:00;6.0;6.0;
47934;PMS5003;33704;43.592;-79.628;2024-03-29T02:21:35;14.0;8.0;
47934;PMS5003;33704;43.592;-79.628;2024-03-29T02:22:12;7.0;7.0;
47934;PMS5003;33704;43.592;-79.628;2024-03-29T02:22:50;7.0;6.0;
47934;PMS5003;33704;43.592;-79.628;2024-03-29T02:23:26;11.0;8.0;
47934;PMS5003;33704;43.592;-79.628;2024-03-29T02:24:01;6.0;5.0;
47934;PMS5003;33704;43.592;-79.628;2024-03-29T02:24:36;6.0;6.0;
47934;PMS5003;33704;43.592;-79.628;2024-03-29T02:25:08;7.0;6.0;
47934;PMS5003;33704;43.592;-79.628;2024-03-29T02:25:42;6.0;4.0;
47934;PMS5003;33704;43.592;-79.628;2024-03-29T02:26:14;8.0;8.0;
47934;PMS5003;33704;43.592;-79.628;2024-03-29T02:26:46;8.0;6.0;
47934;PMS5003;33704;43.592;-79.628;2024-03-29T02:27:19;5.0;5.0;
47934;PMS5003;33704;43.592;-79.628;2024-03-29T02:27:53;7.0;5.0;
47934;PMS5003;33704;43.592;-79.628;2024-03-29T02:28:26;5.0;5.0;
47934;PMS5003;33704;43.592;-79.628;2024-03-29T02:28:58;7.0;6.0;
47934;PMS5003;33704;43.592;-79.628;2024-03-29T02:29:30;6.0;6.0;
47934;PMS5003;33704;43.592;-79.628;2024-03-29T02:30:04;4.0;4.0;
47934;PMS5003;33704;43.592;-79.628;2024-03-29T02:30:37;4.0;4.0;
47934;PMS5003;33704;43.592;-79.628;2024-03-29T02:31:09;6.0;5.0;
47934;PMS5003;33704;43.592;-79.628;2024-03-29T02:31:42;7.0;6.0;
47934;PMS5003;33704;43.592;-79.628;2024-03-29T02:32:14;7.0;7.0;
47934;PMS5003;33704;43.592;-79.628;2024-03-29T02:32:46;7.0;4.0;
47934;PMS5003;33704;43.592;-79.628;2024-03-29T02:33:20;10.0;8.0;
47934;PMS5003;33704;43.592;-79.628;2024-03-29T02:33:53;5.0;4.0;
47934;PMS5003;33704;43.592;-79.628;2024-03-29T02:34:24;6.0;3.0;
47934;PMS5003;33704;43.592;-79.628;2024-03-29T02:34:56;6.0;3.0;
47934;PMS5003;33704;43.592;-79.628;2024-03-29T02:35:29;6.0;6.0;
47934;PMS5003;33704;43.592;-79.628;2024-03-29T02:36:02;7.0;7.0;
47934;PMS5003;33704;43.592;-79.628;2024-03-29T02:36:35;4.0;4.0;
47934;PMS5003;33704;43.592;-79.628;2024-03-29T02:37:07;6.0;6.0;
47934;PMS5003;33704;43.592;-79.628;2024-03-29T02:37:39;5.0;5.0;
47934;PMS5003;33704;43.592;-79.628;2024-03-29T02:38:11;5.0;4.0;
47934;PMS5003;33704;43.592;-79.628;2024-03-29T02:38:43;4.0;3.0;
47934;PMS5003;33704;43.592;-79.628;2024-03-29T02:39:15;4.0;4.0;
47934;PMS5003;33704;43.592;-79.628;2024-03-29T02:39:47;5.0;5.0;
47934;PMS5003;33704;43.592;-79.628;2024-03-29T02:40:19;4.0;4.0;
47934;PMS5003;33704;43.592;-79.628;2024-03-29T02:40:52;5.0;5.0;
47934;PMS5003;33704;43.592;-79.628;2024-03-29T02:41:24;5.0;5.0;
47934;PMS5003;33704;43.592;-79.628;2024-03-29T02:41:56;5.0;5.0;
47934;PMS5003;33704;43.592;-79.628;2024-03-29T02:42:27;8.0;8.0;
47934;PMS5003;33704;43.592;-79.628;2024-03-29T02:42:59;7.0;5.0;
47934;PMS5003;33704;43.592;-79.628;2024-03-29T02:43:32;6.0;5.0;
47934;PMS5003;33704;43.592;-79.628;2024-03-29T02:44:04;6.0;6.0;
47934;PMS5003;33704;43.592;-79.628;2024-03-29T02:44:36;5.0;5.0;
47934;PMS5003;33704;43.592;-79.628;2024-03-29T02:45:08;4.0;4.0;
47934;PMS5003;33704;43.592;-79.628;2024-03-29T02:45:40;6.0;6.0;
47934;PMS5003;33704;43.592;-79.628;2024-03-29T02:46:14;9.0;8.0;
47934;PMS5003;33704;43.592;-79.628;2024-03-29T02:46:45;6.0;6.0;
47934;PMS5003;33704;43.592;-79.628;2024-03-29T02:47:17;6.0;5.0;
47934;PMS5003;33704;43.592;-79.628;2024-03-29T02:47:49;7.0;5.0;
47934;PMS5003;33704;43.592;-79.628;2024-03-29T02:48:22;4.0;4.0;
47934;PMS5003;33704;43.592;-79.628;2024-03-29T02:48:54;7.0;7.0;
47934;PMS5003;33704;43.592;-79.628;2024-03-29T02:49:26;4.0;4.0;
47934;PMS5003;33704;43.592;-79.628;2024-03-29T02:49:57;8.0;5.0;
47934;PMS5003;33704;43.592;-79.628;2024-03-29T02:50:29;6.0;6.0;
47934;PMS5003;33704;43.592;-79.628;2024-03-29T02:51:03;5.0;5.0;
47934;PMS5003;33704;43.592;-79.628;2024-03-29T02:51:36;5.0;5.0;
47934;PMS5003;33704;43.592;-79.628;2024-03-29T02:52:07;7.0;5.0;
47934;PMS5003;33704;43.592;-79.628;2024-03-29T02:52:39;5.0;5.0;
47934;PMS5003;33704;43.592;-79.628;2024-03-29T02:53:12;6.0;5.0;
47934;PMS5003;33704;43.592;-79.628;2024-03-29T02:53:44;3.0;3.0;
47934;PMS5003;33704;43.592;-79.628;2024-03-29T02:54:15;9.0;6.0;
47934;PMS5003;33704;43.592;-79.628;2024-03-29T02:54:47;5.0;5.0;
47934;PMS5003;33704;43.592;-79.628;2024-03-29T02:55:19;4.0;4.0;
47934;PMS5003;33704;43.592;-79.628;2024-03-29T02:55:52;6.0;6.0;
47934;PMS5003;33704;43.592;-79.628;2024-03-29T02:56:23;8.0;7.0;
47934;PMS5003;33704;43.592;-79.628;2024-03-29T02:56:55;5.0;4.0;
47934;PMS5003;33704;43.592;-79.628;2024-03-29T02:57:27;4.0;4.0;
47934;PMS5003;33704;43.592;-79.628;2024-03-29T02:57:59;7.0;5.0;
47934;PMS5003;33704;43.592;-79.628;2024-03-29T02:58:31;7.0;5.0;
47934;PMS5003;33704;43.592;-79.628;2024-03-29T02:59:04;4.0;4.0;
47934;PMS5003;33704;43.592;-79.628;2024-03-29T02:59:36;7.0;6.0;
47934;PMS5003;33704;43.592;-79.628;2024-03-29T03:00:17;5.0;4.0;
47934;PMS5003;33704;43.592;-79.628;2024-03-29T03:00:50;5.0;4.0;
47934;PMS5003;33704;43.592;-79.628;2024-03-29T03:01:23;7.0;5.0;
47934;PMS5003;33704;43.592;-79.628;2024-03-29T03:01:55;8.0;7.0;
47934;PMS5003;33704;43.592;-79.628;2024-03-29T03:02:27;5.0;5.0;
47934;PMS5003;33704;43.592;-79.628;2024-03-29T03:02:59;5.0;5.0;
47934;PMS5003;33704;43.592;-79.628;2024-03-29T03:03:32;6.0;6.0;
47934;PMS5003;33704;43.592;-79.628;2024-03-29T03:04:04;7.0;6.0;
47934;PMS5003;33704;43.592;-79.628;2024-03-29T03:04:36;7.0;5.0;
47934;PMS5003;33704;43.592;-79.628;2024-03-29T03:05:08;6.0;5.0;
47934;PMS5003;33704;43.592;-79.628;2024-03-29T03:05:40;4.0;4.0;
47934;PMS5003;33704;43.592;-79.628;2024-03-29T03:06:13;5.0;5.0;
47934;PMS5003;33704;43.592;-79.628;2024-03-29T03:06:45;6.0;5.0;
47934;PMS5003;33704;43.592;-79.628;2024-03-29T03:07:16;5.0;5.0;
47934;PMS5003;33704;43.592;-79.628;2024-03-29T03:07:48;6.0;6.0;
47934;PMS5003;33704;43.592;-79.628;2024-03-29T03:08:22;5.0;5.0;
47934;PMS5003;33704;43.592;-79.628;2024-03-29T03:08:54;5.0;4.0;
47934;PMS5003;33704;43.592;-79.628;2024-03-29T03:09:25;3.0;3.0;
47934;PMS5003;33704;43.592;-79.628;2024-03-29T03:09:57;6.0;5.0;
47934;PMS5003;33704;43.592;-79.628;2024-03-29T03:10:29;5.0;4.0;
47934;PMS5003;33704;43.592;-79.628;2024-03-29T03:11:04;6.0;5.0;
47934;PMS5003;33704;43.592;-79.628;2024-03-29T03:11:36;5.0;4.0;
47934;PMS5003;33704;43.592;-79.628;2024-03-29T03:12:08;8.0;6.0;
47934;PMS5003;33704;43.592;-79.628;2024-03-29T03:12:39;4.0;4.0;
47934;PMS5003;33704;43.592;-79.628;2024-03-29T03:13:12;5.0;5.0;
47934;PMS5003;33704;43.592;-79.628;2024-03-29T03:13:44;4.0;4.0;
47934;PMS5003;33704;43.592;-79.628;2024-03-29T03:14:15;4.0;3.0;
47934;PMS5003;33704;43.592;-79.628;2024-03-29T03:14:47;4.0;4.0;
47934;PMS5003;33704;43.592;-79.628;2024-03-29T03:15:19;5.0;5.0;
47934;PMS5003;33704;43.592;-79.628;2024-03-29T03:15:52;4.0;4.0;
47934;PMS5003;33704;43.592;-79.628;2024-03-29T03:16:24;6.0;5.0;
47934;PMS5003;33704;43.592;-79.628;2024-03-29T03:16:57;3.0;3.0;
47934;PMS5003;33704;43.592;-79.628;2024-03-29T03:17:28;5.0;4.0;
47934;PMS5003;33704;43.592;-79.628;2024-03-29T03:18:04;5.0;5.0;
47934;PMS5003;33704;43.592;-79.628;2024-03-29T03:18:36;4.0;4.0;
47934;PMS5003;33704;43.592;-79.628;2024-03-29T03:19:07;4.0;4.0;
47934;PMS5003;33704;43.592;-79.628;2024-03-29T03:19:39;3.0;3.0;
47934;PMS5003;33704;43.592;-79.628;2024-03-29T03:20:11;5.0;3.0;
47934;PMS5003;33704;43.592;-79.628;2024-03-29T03:20:50;7.0;5.0;
47934;PMS5003;33704;43.592;-79.628;2024-03-29T03:21:23;6.0;5.0;
47934;PMS5003;33704;43.592;-79.628;2024-03-29T03:21:55;5.0;3.0;